createdAt,value
2018-09-04T00:02:07.893Z,16.02
2018-09-04T00:04:36.733Z,16.02
2018-09-04T00:07:06.321Z,16.03
2018-09-04T00:09:36.715Z,16.06
2018-09-04T00:12:05.546Z,16.03
2018-09-04T00:14:35.296Z,16.05
2018-09-04T00:17:04.341Z,15.99
2018-09-04T00:19:33.906Z,15.99
2018-09-04T00:22:02.416Z,16.00
2018-09-04T00:24:30.859Z,16.02
2018-09-04T00:26:59.358Z,15.96
2018-09-04T00:29:28.936Z,15.97
2018-09-04T00:31:58.353Z,15.97
2018-09-04T00:34:26.965Z,15.96
2018-09-04T00:36:55.682Z,15.93
2018-09-04T00:39:24.152Z,15.94
2018-09-04T00:41:52.643Z,15.91
2018-09-04T00:44:21.340Z,15.84
2018-09-04T00:46:50.185Z,15.78
2018-09-04T00:49:19.078Z,15.79
2018-09-04T00:51:49.823Z,15.78
2018-09-04T00:54:18.273Z,15.77
2018-09-04T00:56:46.769Z,15.75
2018-09-04T00:59:15.622Z,15.79
2018-09-04T01:01:45.124Z,15.80
2018-09-04T01:04:14.671Z,15.77
2018-09-04T01:06:43.405Z,15.74
2018-09-04T01:09:16.785Z,15.73
2018-09-04T01:11:45.518Z,15.75
2018-09-04T01:14:14.525Z,15.68
2018-09-04T01:16:43.937Z,15.64
2018-09-04T01:19:13.457Z,15.71
2018-09-04T01:21:43.156Z,15.71
2018-09-04T01:24:12.284Z,15.71
2018-09-04T01:26:40.772Z,15.70
2018-09-04T01:29:09.633Z,15.64
2018-09-04T01:31:38.122Z,15.63
2018-09-04T01:34:06.621Z,15.56
2018-09-04T01:36:35.348Z,15.50
2018-09-04T01:39:04.424Z,15.29
2018-09-04T01:41:33.359Z,15.15
2018-09-04T01:44:01.839Z,15.07
2018-09-04T01:46:30.365Z,14.99
2018-09-04T01:48:58.839Z,14.93
2018-09-04T01:51:28.710Z,14.92
2018-09-04T01:53:57.186Z,14.97
2018-09-04T01:56:25.669Z,15.02
2018-09-04T01:58:55.333Z,15.05
2018-09-04T02:01:23.850Z,15.10
2018-09-04T02:03:52.620Z,15.17
2018-09-04T02:06:21.387Z,15.27
2018-09-04T02:08:50.160Z,15.35
2018-09-04T02:11:19.309Z,15.40
2018-09-04T02:13:47.801Z,15.44
2018-09-04T02:16:16.903Z,15.47
2018-09-04T02:18:45.695Z,15.44
2018-09-04T02:21:14.177Z,15.41
2018-09-04T02:23:42.641Z,15.45
2018-09-04T02:26:11.093Z,15.54
2018-09-04T02:28:40.158Z,15.49
2018-09-04T02:31:08.645Z,15.48
2018-09-04T02:33:37.384Z,15.45
2018-09-04T02:36:06.202Z,15.47
2018-09-04T02:38:34.708Z,15.50
2018-09-04T02:41:03.818Z,15.54
2018-09-04T02:43:33.665Z,15.54
2018-09-04T02:46:02.502Z,15.59
2018-09-04T02:48:31.515Z,15.62
2018-09-04T02:51:00.670Z,15.62
2018-09-04T02:53:30.440Z,15.62
2018-09-04T02:55:58.952Z,15.62
2018-09-04T02:58:27.653Z,15.44
2018-09-04T03:00:57.569Z,15.28
2018-09-04T03:03:26.083Z,15.37
2018-09-04T03:05:55.446Z,15.28
2018-09-04T03:08:24.042Z,15.24
2018-09-04T03:10:52.735Z,15.22
2018-09-04T03:13:21.632Z,15.22
2018-09-04T03:15:50.153Z,15.26
2018-09-04T03:18:20.205Z,15.28
2018-09-04T03:20:50.184Z,15.32
2018-09-04T03:23:18.909Z,15.33
2018-09-04T03:25:48.141Z,15.34
2018-09-04T03:28:17.229Z,15.25
2018-09-04T03:30:46.726Z,15.20
2018-09-04T03:33:15.612Z,15.11
2018-09-04T03:35:45.070Z,15.05
2018-09-04T03:38:13.761Z,15.00
2018-09-04T03:40:43.049Z,14.94
2018-09-04T03:43:11.628Z,14.83
2018-09-04T03:45:40.124Z,14.85
2018-09-04T03:48:09.356Z,14.83
2018-09-04T03:50:39.545Z,14.79
2018-09-04T03:53:08.538Z,14.74
2018-09-04T03:55:37.060Z,14.78
2018-09-04T03:58:05.685Z,14.87
2018-09-04T04:00:34.156Z,14.91
2018-09-04T04:03:03.595Z,14.94
2018-09-04T04:05:32.601Z,14.98
2018-09-04T04:08:01.968Z,15.07
2018-09-04T04:10:31.038Z,15.15
2018-09-04T04:12:59.590Z,15.13
2018-09-04T04:15:30.640Z,15.04
2018-09-04T04:17:59.243Z,15.04
2018-09-04T04:20:28.146Z,15.03
2018-09-04T04:22:57.546Z,14.98
2018-09-04T04:25:26.065Z,15.02
2018-09-04T04:27:54.997Z,15.00
2018-09-04T04:30:23.467Z,15.02
2018-09-04T04:32:52.673Z,14.93
2018-09-04T04:35:21.360Z,15.00
2018-09-04T04:37:50.161Z,15.09
2018-09-04T04:40:18.851Z,15.09
2018-09-04T04:42:47.561Z,15.14
2018-09-04T04:45:16.452Z,15.11
2018-09-04T04:47:48.038Z,15.08
2018-09-04T04:50:18.573Z,15.05
2018-09-04T04:52:47.088Z,15.16
2018-09-04T04:55:16.903Z,15.22
2018-09-04T04:57:46.012Z,15.28
2018-09-04T05:00:14.587Z,15.34
2018-09-04T05:02:45.104Z,15.42
2018-09-04T05:05:13.578Z,15.48
2018-09-04T05:07:43.241Z,15.56
2018-09-04T05:10:11.763Z,15.54
2018-09-04T05:12:40.664Z,15.57
2018-09-04T05:15:09.833Z,15.42
2018-09-04T05:17:38.313Z,15.35
2018-09-04T05:20:09.182Z,15.45
2018-09-04T05:22:37.704Z,15.38
2018-09-04T05:25:06.446Z,15.41
2018-09-04T05:27:34.926Z,15.49
2018-09-04T05:30:03.926Z,15.54
2018-09-04T05:32:37.133Z,15.64
2018-09-04T05:35:06.098Z,15.58
2018-09-04T05:37:34.819Z,15.54
2018-09-04T05:40:03.297Z,15.69
2018-09-04T05:42:42.896Z,15.68
2018-09-04T05:45:11.461Z,15.71
2018-09-04T05:47:41.257Z,15.80
2018-09-04T05:50:10.685Z,15.90
2018-09-04T05:52:39.800Z,15.92
2018-09-04T05:55:08.689Z,15.83
2018-09-04T05:57:37.570Z,15.90
2018-09-04T06:00:10.553Z,16.02
2018-09-04T06:02:40.085Z,16.03
2018-09-04T06:05:09.108Z,16.10
2018-09-04T06:07:37.947Z,16.02
2018-09-04T06:10:06.829Z,16.12
2018-09-04T06:12:35.739Z,16.21
2018-09-04T06:15:04.932Z,16.15
2018-09-04T06:17:33.447Z,16.21
2018-09-04T06:20:02.679Z,16.01
2018-09-04T06:22:32.270Z,16.07
2018-09-04T06:25:00.767Z,16.09
2018-09-04T06:27:29.300Z,16.21
2018-09-04T06:29:58.221Z,16.27
2018-09-04T06:32:27.785Z,16.33
2018-09-04T06:34:56.292Z,16.36
2018-09-04T06:37:25.082Z,16.41
2018-09-04T06:39:54.300Z,16.45
2018-09-04T06:42:24.223Z,16.47
2018-09-04T06:44:52.710Z,16.41
2018-09-04T06:47:21.548Z,16.52
2018-09-04T06:49:50.610Z,16.61
2018-09-04T06:52:19.072Z,16.71
2018-09-04T06:54:47.864Z,16.79
2018-09-04T06:57:16.551Z,16.84
2018-09-04T06:59:46.224Z,16.78
2018-09-04T07:02:15.029Z,16.89
2018-09-04T07:04:43.826Z,16.83
2018-09-04T07:07:12.306Z,16.89
2018-09-04T07:09:40.769Z,17.01
2018-09-04T07:12:09.543Z,16.96
2018-09-04T07:14:38.631Z,17.06
2018-09-04T07:17:07.181Z,17.13
2018-09-04T07:19:36.048Z,17.06
2018-09-04T07:22:05.307Z,17.04
2018-09-04T07:24:35.171Z,17.15
2018-09-04T07:27:04.567Z,17.21
2018-09-04T07:29:33.064Z,17.27
2018-09-04T07:32:01.721Z,17.33
2018-09-04T07:34:30.656Z,17.39
2018-09-04T07:37:00.025Z,17.41
2018-09-04T07:39:28.546Z,17.42
2018-09-04T07:41:57.100Z,17.54
2018-09-04T07:44:26.833Z,17.60
2018-09-04T07:46:56.464Z,17.72
2018-09-04T07:49:24.937Z,17.65
2018-09-04T07:51:53.417Z,17.55
2018-09-04T07:54:22.204Z,17.70
2018-09-04T07:56:51.702Z,17.83
2018-09-04T07:59:21.513Z,17.95
2018-09-04T08:01:50.262Z,18.02
2018-09-04T08:04:18.738Z,18.08
2018-09-04T08:06:48.496Z,18.17
2018-09-04T08:09:17.207Z,18.23
2018-09-04T08:11:46.319Z,18.30
2018-09-04T08:14:15.499Z,18.29
2018-09-04T08:16:45.807Z,18.31
2018-09-04T08:19:14.660Z,18.40
2018-09-04T08:21:43.156Z,18.41
2018-09-04T08:24:12.155Z,18.56
2018-09-04T08:26:41.237Z,18.59
2018-09-04T08:29:09.722Z,18.72
2018-09-04T08:31:38.229Z,18.82
2018-09-04T08:34:06.695Z,18.83
2018-09-04T08:36:35.176Z,18.75
2018-09-04T08:39:05.017Z,18.74
2018-09-04T08:41:33.902Z,18.93
2018-09-04T08:44:02.517Z,19.03
2018-09-04T08:46:31.073Z,19.01
2018-09-04T08:49:00.451Z,19.22
2018-09-04T08:51:28.942Z,19.29
2018-09-04T08:53:57.415Z,19.37
2018-09-04T08:56:25.900Z,19.09
2018-09-04T08:58:54.452Z,19.03
2018-09-04T09:01:22.932Z,18.92
2018-09-04T09:03:52.111Z,19.24
2018-09-04T09:06:20.835Z,19.49
2018-09-04T09:08:49.638Z,19.68
2018-09-04T09:11:18.123Z,19.61
2018-09-04T09:13:46.756Z,20.00
2018-09-04T09:16:16.066Z,20.14
2018-09-04T09:18:44.563Z,20.12
2018-09-04T09:21:14.143Z,20.33
2018-09-04T09:23:42.850Z,20.33
2018-09-04T09:26:11.350Z,20.52
2018-09-04T09:28:39.816Z,20.62
2018-09-04T09:31:08.599Z,20.54
2018-09-04T09:33:37.386Z,20.65
2018-09-04T09:36:06.273Z,20.95
2018-09-04T09:38:34.820Z,21.00
2018-09-04T09:41:04.178Z,20.89
2018-09-04T09:43:32.713Z,20.80
2018-09-04T09:46:01.551Z,20.57
2018-09-04T09:48:35.494Z,20.99
2018-09-04T09:51:04.007Z,21.16
2018-09-04T09:53:32.646Z,21.40
2018-09-04T09:56:01.372Z,21.42
2018-09-04T09:58:29.809Z,21.50
2018-09-04T10:01:03.970Z,21.45
2018-09-04T10:03:37.546Z,21.78
2018-09-04T10:06:06.053Z,21.67
2018-09-04T10:08:34.526Z,21.86
2018-09-04T10:11:03.515Z,21.62
2018-09-04T10:13:32.305Z,21.99
2018-09-04T10:18:28.879Z,22.31
2018-09-04T10:20:58.532Z,22.70
2018-09-04T10:23:27.067Z,21.88
2018-09-04T10:25:55.617Z,22.45
2018-09-04T10:28:24.572Z,22.79
2018-09-04T10:30:53.546Z,23.16
2018-09-04T10:33:22.087Z,23.36
2018-09-04T10:35:51.372Z,23.38
2018-09-04T10:38:23.175Z,23.55
2018-09-04T10:40:52.617Z,23.73
2018-09-04T10:43:22.024Z,23.57
2018-09-04T10:45:56.397Z,24.02
2018-09-04T10:48:25.542Z,24.25
2018-09-04T10:50:54.072Z,24.27
2018-09-04T10:53:22.993Z,24.41
2018-09-04T10:55:51.534Z,24.66
2018-09-04T10:58:20.773Z,24.65
2018-09-04T11:00:49.537Z,24.82
2018-09-04T11:03:18.481Z,24.62
2018-09-04T11:05:47.040Z,24.89
2018-09-04T11:08:15.859Z,24.95
2018-09-04T11:10:44.393Z,24.62
2018-09-04T11:13:14.736Z,25.03
2018-09-04T11:15:43.564Z,24.91
2018-09-04T11:18:13.942Z,24.78
2018-09-04T11:20:42.429Z,24.36
2018-09-04T11:23:11.278Z,24.47
2018-09-04T11:25:40.077Z,23.45
2018-09-04T11:28:08.825Z,24.07
2018-09-04T11:30:38.437Z,24.70
2018-09-04T11:33:07.249Z,23.83
2018-09-04T11:35:35.773Z,24.41
2018-09-04T11:38:04.327Z,25.03
2018-09-04T11:40:33.323Z,25.69
2018-09-04T11:43:03.482Z,25.29
2018-09-04T11:45:31.962Z,25.76
2018-09-04T11:48:00.896Z,26.38
2018-09-04T11:50:29.410Z,26.41
2018-09-04T11:52:57.903Z,25.93
2018-09-04T11:55:26.853Z,26.33
2018-09-04T11:57:55.718Z,25.93
2018-09-04T12:00:28.776Z,26.56
2018-09-04T12:02:58.847Z,26.10
2018-09-04T12:05:29.495Z,26.47
2018-09-04T12:07:57.976Z,27.04
2018-09-04T12:10:26.420Z,26.94
2018-09-04T12:12:55.496Z,26.96
2018-09-04T12:15:24.739Z,27.10
2018-09-04T12:17:53.270Z,27.29
2018-09-04T12:20:29.485Z,27.57
2018-09-04T12:22:58.323Z,27.86
2018-09-04T12:25:27.269Z,28.10
2018-09-04T12:27:56.361Z,28.27
2018-09-04T12:30:24.993Z,28.46
2018-09-04T12:32:53.759Z,28.69
2018-09-04T12:35:22.321Z,28.37
2018-09-04T12:37:51.140Z,28.27
2018-09-04T12:40:19.816Z,28.32
2018-09-04T12:42:48.353Z,28.60
2018-09-04T12:45:16.829Z,28.71
2018-09-04T12:47:46.124Z,28.43
2018-09-04T12:50:14.591Z,28.34
2018-09-04T12:52:43.091Z,28.40
2018-09-04T12:55:11.615Z,28.36
2018-09-04T12:57:40.151Z,27.97
2018-09-04T13:00:08.980Z,28.16
2018-09-04T13:02:37.852Z,28.41
2018-09-04T13:05:07.476Z,28.74
2018-09-04T13:07:36.809Z,29.43
2018-09-04T13:10:05.399Z,29.45
2018-09-04T13:12:33.923Z,29.99
2018-09-04T13:15:03.518Z,29.51
2018-09-04T13:17:32.002Z,29.65
2018-09-04T13:20:00.542Z,29.71
2018-09-04T13:22:29.278Z,29.21
2018-09-04T13:24:57.807Z,28.84
2018-09-04T13:27:26.294Z,28.60
2018-09-04T13:29:55.165Z,28.48
2018-09-04T13:32:24.589Z,28.41
2018-09-04T13:34:53.877Z,28.39
2018-09-04T13:37:23.901Z,27.93
2018-09-04T13:40:02.374Z,27.90
2018-09-04T13:42:32.090Z,27.86
2018-09-04T13:45:01.709Z,27.65
2018-09-04T13:47:31.747Z,27.21
2018-09-04T13:50:00.328Z,27.31
2018-09-04T13:52:30.469Z,28.08
2018-09-04T13:54:59.541Z,27.04
2018-09-04T13:57:28.666Z,27.41
2018-09-04T13:59:57.460Z,27.94
2018-09-04T14:02:26.751Z,28.76
2018-09-04T14:04:55.265Z,29.19
2018-09-04T14:07:24.049Z,29.48
2018-09-04T14:09:52.730Z,29.13
2018-09-04T14:12:21.621Z,28.56
2018-09-04T14:14:50.984Z,27.92
2018-09-04T14:17:20.790Z,27.63
2018-09-04T14:19:50.030Z,27.68
2018-09-04T14:22:18.543Z,27.48
2018-09-04T14:25:29.576Z,26.90
2018-09-04T14:27:58.019Z,27.04
2018-09-04T14:30:26.809Z,27.09
2018-09-04T14:32:55.749Z,27.70
2018-09-04T14:35:24.633Z,27.83
2018-09-04T14:37:53.582Z,28.36
2018-09-04T14:40:22.099Z,28.85
2018-09-04T14:42:51.538Z,29.18
2018-09-04T14:45:20.058Z,28.92
2018-09-04T14:47:48.958Z,29.08
2018-09-04T14:50:17.670Z,29.08
2018-09-04T14:52:47.619Z,29.30
2018-09-04T14:55:16.612Z,29.46
2018-09-04T14:57:45.992Z,29.91
2018-09-04T15:00:15.546Z,30.27
2018-09-04T15:02:44.022Z,29.98
2018-09-04T15:05:12.535Z,30.33
2018-09-04T15:07:41.840Z,30.32
2018-09-04T15:10:11.225Z,30.34
2018-09-04T15:12:39.982Z,30.69
2018-09-04T15:15:09.123Z,30.68
2018-09-04T15:17:37.931Z,30.80
2018-09-04T15:20:07.388Z,30.41
2018-09-04T15:22:40.393Z,30.46
2018-09-04T15:25:09.753Z,30.26
2018-09-04T15:27:38.581Z,30.26
2018-09-04T15:30:07.238Z,30.10
2018-09-04T15:32:36.173Z,30.24
2018-09-04T15:35:05.112Z,30.36
2018-09-04T15:37:35.088Z,30.66
2018-09-04T15:40:04.148Z,30.70
2018-09-04T15:42:33.533Z,30.74
2018-09-04T15:45:02.921Z,30.98
2018-09-04T15:47:32.347Z,30.89
2018-09-04T15:50:00.857Z,30.83
2018-09-04T15:52:29.567Z,30.90
2018-09-04T15:54:58.690Z,30.26
2018-09-04T15:57:27.622Z,30.42
2018-09-04T15:59:56.666Z,30.15
2018-09-04T16:02:25.384Z,29.97
2018-09-04T16:04:54.247Z,29.53
2018-09-04T16:07:24.663Z,29.11
2018-09-04T16:09:54.147Z,29.06
2018-09-04T16:12:22.771Z,28.71
2018-09-04T16:14:52.622Z,28.64
2018-09-04T16:17:21.409Z,28.39
2018-09-04T16:19:50.209Z,28.09
2018-09-04T16:22:19.255Z,28.05
2018-09-04T16:24:48.009Z,27.94
2018-09-04T16:27:18.842Z,27.61
2018-09-04T16:29:48.678Z,27.51
2018-09-04T16:32:17.162Z,27.22
2018-09-04T16:34:45.685Z,26.64
2018-09-04T16:37:14.163Z,26.40
2018-09-04T16:39:42.676Z,25.90
2018-09-04T16:42:11.157Z,25.81
2018-09-04T16:44:40.944Z,25.80
2018-09-04T16:47:09.427Z,25.66
2018-09-04T16:49:37.968Z,25.54
2018-09-04T16:52:06.623Z,25.29
2018-09-04T16:54:36.717Z,25.27
2018-09-04T16:57:05.624Z,25.16
2018-09-04T16:59:35.100Z,25.08
2018-09-04T17:02:07.479Z,24.97
2018-09-04T17:04:36.315Z,24.81
2018-09-04T17:07:05.717Z,24.78
2018-09-04T17:09:34.243Z,24.71
2018-09-04T17:12:02.740Z,24.69
2018-09-04T17:14:32.469Z,24.74
2018-09-04T17:17:00.981Z,24.76
2018-09-04T17:19:30.885Z,24.79
2018-09-04T17:22:00.557Z,24.75
2018-09-04T17:24:29.685Z,24.81
2018-09-04T17:26:58.212Z,24.92
2018-09-04T17:29:27.362Z,24.83
2018-09-04T17:31:58.318Z,25.02
2018-09-04T17:34:28.427Z,25.07
2018-09-04T17:36:57.545Z,25.07
2018-09-04T17:39:26.072Z,25.02
2018-09-04T17:41:54.957Z,24.75
2018-09-04T17:44:24.680Z,24.81
2018-09-04T17:46:53.437Z,24.86
2018-09-04T17:49:21.906Z,24.80
2018-09-04T17:51:50.437Z,24.39
2018-09-04T17:54:19.745Z,24.46
2018-09-04T17:56:49.296Z,24.18
2018-09-04T17:59:17.784Z,24.07
2018-09-04T18:01:46.645Z,23.60
2018-09-04T18:04:17.005Z,23.40
2018-09-04T18:06:45.527Z,23.21
2018-09-04T18:09:15.487Z,23.28
2018-09-04T18:11:45.211Z,23.23
2018-09-04T18:14:14.122Z,23.25
2018-09-04T18:16:42.677Z,23.30
2018-09-04T18:19:11.173Z,23.24
2018-09-04T18:21:40.020Z,23.16
2018-09-04T18:24:09.341Z,23.07
2018-09-04T18:26:38.013Z,23.05
2018-09-04T18:29:07.081Z,23.07
2018-09-04T18:31:35.588Z,23.01
2018-09-04T18:34:04.070Z,22.99
2018-09-04T18:36:32.941Z,22.96
2018-09-04T18:39:01.416Z,23.01
2018-09-04T18:41:30.644Z,23.02
2018-09-04T18:44:00.116Z,22.60
2018-09-04T18:46:28.675Z,22.30
2018-09-04T18:48:57.289Z,22.32
2018-09-04T18:51:26.507Z,22.22
2018-09-04T18:53:56.940Z,22.07
2018-09-04T18:56:26.009Z,22.16
2018-09-04T18:58:54.804Z,21.94
2018-09-04T19:01:23.328Z,21.83
2018-09-04T19:03:52.129Z,21.82
2018-09-04T19:06:21.256Z,21.87
2018-09-04T19:08:49.735Z,21.89
2018-09-04T19:11:18.528Z,21.90
2018-09-04T19:13:47.037Z,21.89
2018-09-04T19:16:15.542Z,21.89
2018-09-04T19:18:44.330Z,21.95
2018-09-04T19:21:12.865Z,21.98
2018-09-04T19:23:41.838Z,21.99
2018-09-04T19:26:10.308Z,21.97
2018-09-04T19:28:39.563Z,21.90
2018-09-04T19:31:08.257Z,21.82
2018-09-04T19:33:37.681Z,21.80
2018-09-04T19:36:06.129Z,21.71
2018-09-04T19:38:34.604Z,21.82
2018-09-04T19:41:03.067Z,21.72
2018-09-04T19:43:32.012Z,21.67
2018-09-04T19:46:01.228Z,21.67
2018-09-04T19:48:30.361Z,21.60
2018-09-04T19:50:59.350Z,21.47
2018-09-04T19:53:27.849Z,21.51
2018-09-04T19:55:57.196Z,21.52
2018-09-04T19:58:26.252Z,21.51
2018-09-04T20:00:55.012Z,21.45
2018-09-04T20:03:23.707Z,21.48
2018-09-04T20:05:52.173Z,21.43
2018-09-04T20:08:21.667Z,21.39
2018-09-04T20:10:50.472Z,21.42
2018-09-04T20:13:19.751Z,21.47
2018-09-04T20:15:48.373Z,21.40
2018-09-04T20:18:16.916Z,21.34
2018-09-04T20:20:45.604Z,21.18
2018-09-04T20:23:14.130Z,21.09
2018-09-04T20:25:43.359Z,20.97
2018-09-04T20:28:12.101Z,20.92
2018-09-04T20:30:40.552Z,20.96
2018-09-04T20:33:09.032Z,20.85
2018-09-04T20:35:37.520Z,20.91
2018-09-04T20:38:06.148Z,20.89
2018-09-04T20:40:35.169Z,20.85
2018-09-04T20:43:04.088Z,20.93
2018-09-04T20:45:32.545Z,20.81
2018-09-04T20:48:01.265Z,20.76
2018-09-04T20:50:32.285Z,20.72
2018-09-04T20:53:00.762Z,20.58
2018-09-04T20:55:30.208Z,20.63
2018-09-04T20:58:09.886Z,20.50
2018-09-04T21:00:49.782Z,20.39
2018-09-04T21:03:29.424Z,20.43
2018-09-04T21:06:09.622Z,20.36
2018-09-04T21:08:52.170Z,20.24
2018-09-04T21:11:21.060Z,20.12
2018-09-04T21:13:49.560Z,19.99
2018-09-04T21:16:18.532Z,19.95
2018-09-04T21:18:47.013Z,19.78
2018-09-04T21:21:15.480Z,19.81
2018-09-04T21:23:44.937Z,19.91
2018-09-04T21:26:13.848Z,19.91
2018-09-04T21:28:43.600Z,19.84
2018-09-04T21:31:12.699Z,19.98
2018-09-04T21:33:42.114Z,19.96
2018-09-04T21:36:10.927Z,19.95
2018-09-04T21:38:39.616Z,19.90
2018-09-04T21:41:08.107Z,19.93
2018-09-04T21:43:36.565Z,19.96
2018-09-04T21:46:05.266Z,19.83
2018-09-04T21:48:34.112Z,19.67
2018-09-04T21:51:03.478Z,19.69
2018-09-04T21:53:32.268Z,19.61
2018-09-04T21:56:00.738Z,19.56
2018-09-04T21:58:29.269Z,19.54
2018-09-04T22:00:58.688Z,19.51
2018-09-04T22:03:28.653Z,19.47
2018-09-04T22:05:57.849Z,19.37
2018-09-04T22:08:26.324Z,19.34
2018-09-04T22:10:55.053Z,19.22
2018-09-04T22:13:23.546Z,19.26
2018-09-04T22:15:52.087Z,19.35
2018-09-04T22:18:21.210Z,19.39
2018-09-04T22:20:50.126Z,19.43
2018-09-04T22:23:19.440Z,19.47
2018-09-04T22:25:47.936Z,19.56
2018-09-04T22:28:16.426Z,19.56
2018-09-04T22:30:44.954Z,19.67
2018-09-04T22:33:15.521Z,19.68
2018-09-04T22:35:44.071Z,19.67
2018-09-04T22:38:12.556Z,19.48
2018-09-04T22:40:41.635Z,19.43
2018-09-04T22:43:10.185Z,19.31
2018-09-04T22:45:38.681Z,19.29
2018-09-04T22:48:07.188Z,19.36
2018-09-04T22:50:40.968Z,19.35
2018-09-04T22:53:09.456Z,19.39
2018-09-04T22:55:37.962Z,19.37
2018-09-04T22:58:06.498Z,19.35
2018-09-04T23:00:36.496Z,19.30
2018-09-04T23:03:04.998Z,19.25
2018-09-04T23:05:33.497Z,19.08
2018-09-04T23:08:02.827Z,18.99
2018-09-04T23:10:31.761Z,18.98
2018-09-04T23:13:02.422Z,19.03
2018-09-04T23:15:30.910Z,18.92
2018-09-04T23:17:59.386Z,18.93
2018-09-04T23:20:28.348Z,18.88
2018-09-04T23:22:56.785Z,18.71
2018-09-04T23:25:25.613Z,18.73
2018-09-04T23:27:54.306Z,18.66
2018-09-04T23:30:23.087Z,18.51
2018-09-04T23:32:51.833Z,18.48
2018-09-04T23:35:20.713Z,18.41
2018-09-04T23:37:49.158Z,18.45
2018-09-04T23:40:17.693Z,18.45
2018-09-04T23:42:46.542Z,18.38
2018-09-04T23:45:15.058Z,18.41
2018-09-04T23:47:44.590Z,18.40
2018-09-04T23:50:13.596Z,18.40
2018-09-04T23:52:42.836Z,18.50
2018-09-04T23:55:11.324Z,18.52
2018-09-04T23:57:40.209Z,18.41
